Time;durP1;ratioP1;P1;durP2;ratioP2;P2;SDS_P1;SDS_P2;PMS_P1;PMS_P2;Temp;Humidity;BMP_temperature;BMP_pressure;BME280_temperature;BME280_humidity;BME280_pressure;Samples;Min_cycle;Max_cycle;Signal;HPM_P1;HPM_P2
2023/07/13 00:00:36;;;;;;;7.67;4.93;;;;;;;20.79;69.63;99748.25;30865205;28;96879;-70
2023/07/13 00:15:36;;;;;;;8.43;4.97;;;;;;;20.68;70.48;99749.13;30864558;28;97462;-70
2023/07/13 00:30:37;;;;;;;9.33;4.30;;;;;;;20.55;70.93;99750.28;30862624;28;96836;-67
2023/07/13 00:45:43;;;;;;;8.17;4.60;;;;;;;20.57;71.60;99753.56;30861991;28;97580;-70
2023/07/13 01:00:46;;;;;;;8.43;5.20;;;;;;;19.93;71.77;99828.47;30860817;28;97365;-70
2023/07/13 01:15:49;;;;;;;10.13;5.50;;;;;;;19.75;73.37;99778.09;30858869;28;96665;-69
2023/07/13 01:30:49;;;;;;;8.30;5.47;;;;;;;19.47;73.86;99754.59;30857174;28;98141;-70
2023/07/13 01:45:50;;;;;;;8.93;5.90;;;;;;;19.08;75.06;99738.94;30856706;28;110324;-70
2023/07/13 02:00:51;;;;;;;11.13;6.03;;;;;;;18.92;75.74;99720.78;30855180;28;97445;-69
2023/07/13 02:15:52;;;;;;;9.17;6.43;;;;;;;18.81;76.27;99706.22;30854919;28;97211;-70
2023/07/13 02:30:52;;;;;;;10.82;5.90;;;;;;;18.77;76.83;99708.56;30873130;28;112843;-70
2023/07/13 02:45:52;;;;;;;14.27;6.57;;;;;;;18.72;77.41;99699.53;30872977;28;116416;-70
2023/07/13 03:00:53;;;;;;;8.00;4.93;;;;;;;18.85;77.61;99712.78;30871419;28;97335;-70
2023/07/13 03:15:53;;;;;;;7.25;4.95;;;;;;;19.16;77.45;99724.25;30870037;28;97235;-69
2023/07/13 03:31:06;;;;;;;7.20;4.55;;;;;;;19.42;76.74;99722.06;30866916;28;97322;-69
2023/07/13 03:46:06;;;;;;;10.20;4.70;;;;;;;19.64;75.83;99735.72;30866916;28;97438;-70
2023/07/13 04:01:09;;;;;;;5.70;4.13;;;;;;;19.98;74.96;99729.59;30865008;28;113479;-70
2023/07/13 04:16:09;;;;;;;7.43;4.20;;;;;;;20.09;74.06;99763.88;30863842;28;96538;-69
2023/07/13 04:31:10;;;;;;;9.77;3.10;;;;;;;20.23;72.85;99881.50;30858468;28;97310;-68
2023/07/13 04:46:14;;;;;;;4.90;2.70;;;;;;;19.37;68.67;99995.59;30858470;28;96664;-69
2023/07/13 05:01:14;;;;;;;4.50;2.67;;;;;;;18.11;70.98;100039.38;30857047;28;97258;-68
2023/07/13 05:16:15;;;;;;;4.20;2.55;;;;;;;17.71;72.13;100004.72;30857177;28;97481;-68
2023/07/13 05:31:15;;;;;;;5.22;2.97;;;;;;;17.57;73.49;99963.63;30855558;28;96848;-69
2023/07/13 05:46:15;;;;;;;5.72;2.95;;;;;;;17.36;73.30;99937.91;30853620;28;96705;-68
2023/07/13 06:01:16;;;;;;;6.22;2.88;;;;;;;17.57;73.73;99853.19;30849221;28;107434;-69
2023/07/13 06:16:17;;;;;;;4.43;2.55;;;;;;;18.36;73.18;99877.50;30846971;28;97875;-68
2023/07/13 06:31:17;;;;;;;4.07;2.40;;;;;;;19.65;72.52;99934.63;30848595;28;97163;-68
2023/07/13 06:46:18;;;;;;;3.20;2.20;;;;;;;20.63;70.24;99969.88;30848986;28;96816;-69
2023/07/13 07:01:18;;;;;;;6.30;2.90;;;;;;;20.14;69.14;100044.38;30847938;28;110992;-67
2023/07/13 07:16:19;;;;;;;5.15;3.63;;;;;;;18.69;68.99;100115.50;30865083;28;104511;-69
2023/07/13 07:31:20;;;;;;;8.10;3.87;;;;;;;18.50;71.65;100021.09;30864786;28;96643;-67
2023/07/13 07:46:20;;;;;;;6.65;3.63;;;;;;;18.71;72.01;99916.44;30863909;28;101889;-67
2023/07/13 08:01:22;;;;;;;7.40;3.90;;;;;;;19.53;72.36;99931.09;30863282;28;97233;-68
2023/07/13 08:16:23;;;;;;;4.93;2.85;;;;;;;20.49;69.29;100000.19;30858815;28;97013;-68
2023/07/13 08:31:23;;;;;;;6.87;3.77;;;;;;;21.72;67.24;100028.63;30858887;28;97260;-69
2023/07/13 08:46:31;;;;;;;6.80;4.30;;;;;;;21.56;65.57;100058.22;30858531;28;96681;-68
2023/07/13 09:01:56;;;;;;;5.03;3.73;;;;;;;21.27;66.29;100079.09;30853492;28;96985;-66
2023/07/13 09:16:57;;;;;;;4.93;3.40;;;;;;;22.33;64.79;100088.34;30855775;28;96765;-66
2023/07/13 09:32:02;;;;;;;5.57;3.60;;;;;;;23.03;61.49;100071.53;30851808;28;97062;-67
2023/07/13 09:47:14;;;;;;;6.67;3.00;;;;;;;24.18;58.82;100081.25;30852028;28;96707;-67
2023/07/13 10:02:24;;;;;;;6.37;3.37;;;;;;;25.13;57.37;100042.06;30851664;28;97338;-70
2023/07/13 10:17:30;;;;;;;5.63;2.13;;;;;;;27.68;51.99;100064.38;30851540;28;97239;-66
2023/07/13 10:32:30;;;;;;;2.53;1.90;;;;;;;28.83;48.03;100073.00;30849181;28;97594;-66
2023/07/13 10:47:31;;;;;;;3.83;2.00;;;;;;;29.67;44.79;100072.22;30863696;28;105094;-67
2023/07/13 11:02:32;;;;;;;2.23;1.23;;;;;;;30.76;39.39;100064.66;30867932;28;97264;-66
2023/07/13 11:17:35;;;;;;;4.05;1.20;;;;;;;31.02;38.54;100070.41;30867442;28;97059;-67
2023/07/13 11:32:35;;;;;;;3.30;1.60;;;;;;;30.85;37.73;100074.63;30864862;28;96735;-68
2023/07/13 11:47:40;;;;;;;4.50;2.13;;;;;;;30.92;36.59;100065.94;30863506;28;96796;-67
2023/07/13 12:02:44;;;;;;;3.83;1.87;;;;;;;29.95;37.44;100077.81;30860200;28;97497;-66
2023/07/13 12:17:46;;;;;;;3.70;1.70;;;;;;;30.10;37.03;100068.47;30859486;28;96733;-68
2023/07/13 12:32:57;;;;;;;3.20;1.73;;;;;;;30.79;36.44;100075.03;30855216;28;97458;-66
2023/07/13 12:48:04;;;;;;;2.67;1.30;;;;;;;31.56;34.79;100067.72;30854852;28;97178;-68
2023/07/13 13:03:21;;;;;;;1.53;1.07;;;;;;;31.67;33.20;100049.88;30856295;28;96856;-66
2023/07/13 13:18:23;;;;;;;2.90;1.20;;;;;;;31.30;32.57;100048.28;30842896;28;97464;-66
2023/07/13 13:33:23;;;;;;;2.60;1.10;;;;;;;30.40;32.70;100044.25;30807438;28;98986;-71
2023/07/13 13:48:31;;;;;;;3.35;1.23;;;;;;;28.93;34.78;100048.16;30826139;28;96887;-77
2023/07/13 14:03:32;;;;;;;5.30;1.90;;;;;;;28.35;34.28;100022.59;30864284;28;97166;-68
2023/07/13 14:18:32;;;;;;;3.65;1.30;;;;;;;28.27;34.51;100009.56;30833179;28;96741;-67
2023/07/13 14:33:33;;;;;;;4.03;1.27;;;;;;;28.27;33.79;100009.56;30869036;28;114584;-67
2023/07/13 14:48:34;;;;;;;3.60;1.08;;;;;;;28.39;32.29;100000.09;30869053;28;97527;-68
2023/07/13 15:03:34;;;;;;;2.73;1.10;;;;;;;29.02;30.15;99997.00;30868086;28;96741;-68
2023/07/13 15:18:39;;;;;;;4.07;1.48;;;;;;;29.30;29.25;99986.16;30866068;28;97489;-68
2023/07/13 15:33:41;;;;;;;3.30;1.13;;;;;;;29.59;29.94;99976.06;30862933;28;97564;-68
2023/07/13 15:48:42;;;;;;;2.07;1.10;;;;;;;29.90;29.65;99975.50;30864100;28;96621;-67
2023/07/13 16:03:42;;;;;;;3.65;1.40;;;;;;;29.82;31.55;100004.44;30859577;28;97033;-67
2023/07/13 16:18:43;;;;;;;3.13;1.60;;;;;;;29.07;34.08;100025.47;30859049;28;96727;-66
2023/07/13 16:33:43;;;;;;;4.90;1.80;;;;;;;28.46;35.41;100023.28;30859450;28;98944;-67
2023/07/13 16:48:43;;;;;;;5.28;1.70;;;;;;;27.63;36.86;100034.31;30858102;28;96754;-67
2023/07/13 17:03:44;;;;;;;3.65;1.92;;;;;;;26.86;37.78;100045.84;30858604;28;97073;-66
2023/07/13 17:18:44;;;;;;;3.25;1.60;;;;;;;26.33;39.75;100052.59;30857223;28;96743;-66
2023/07/13 17:33:46;;;;;;;3.08;1.95;;;;;;;26.09;40.89;100046.16;30855477;28;96898;-67
2023/07/13 17:48:49;;;;;;;3.00;1.80;;;;;;;25.49;42.94;100065.84;30854426;28;96782;-67
2023/07/13 18:03:57;;;;;;;3.80;1.97;;;;;;;24.79;44.88;100066.25;30853318;28;96759;-72
2023/07/13 18:19:00;;;;;;;4.00;2.00;;;;;;;24.10;46.69;100081.72;30777044;28;98056;-68
2023/07/13 18:34:01;;;;;;;6.67;2.30;;;;;;;23.66;48.02;100101.78;30914636;28;97347;-66
2023/07/13 18:49:03;;;;;;;5.37;2.33;;;;;;;23.36;49.57;100107.75;30836765;28;96785;-65
2023/07/13 19:04:26;;;;;;;2.53;1.50;;;;;;;23.09;50.38;100201.75;30846630;28;97171;-65
2023/07/13 19:19:27;;;;;;;3.37;2.03;;;;;;;21.28;52.63;100179.09;30858541;28;97432;-65
2023/07/13 19:34:28;;;;;;;3.63;1.90;;;;;;;20.19;56.25;100176.97;30857715;28;97200;-65
2023/07/13 19:49:28;;;;;;;5.50;2.03;;;;;;;19.24;58.58;100192.94;30855980;28;96784;-65
2023/07/13 20:04:29;;;;;;;3.83;2.40;;;;;;;18.87;61.30;100209.13;30854712;28;97227;-65
2023/07/13 20:19:33;;;;;;;3.90;2.25;;;;;;;18.61;63.08;100276.59;30851393;28;96830;-65
2023/07/13 20:34:37;;;;;;;5.23;2.13;;;;;;;18.67;63.75;100239.84;30860193;28;96764;-65
2023/07/13 20:49:37;;;;;;;2.87;1.97;;;;;;;18.19;63.75;100200.84;30861559;28;96745;-66
2023/07/13 21:04:38;;;;;;;4.65;2.58;;;;;;;17.77;64.41;100201.34;30773661;28;96981;-65
2023/07/13 21:19:38;;;;;;;4.88;2.75;;;;;;;17.55;66.21;100213.47;30737323;28;96752;-66
2023/07/13 21:34:39;;;;;;;14.65;2.97;;;;;;;17.19;67.40;100237.25;30735326;28;96716;-65
2023/07/13 21:49:39;;;;;;;3.70;2.65;;;;;;;16.91;68.70;100241.06;30735538;28;97586;-65
2023/07/13 22:04:40;;;;;;;10.20;3.22;;;;;;;16.60;69.98;100239.03;30734922;28;96699;-66
2023/07/13 22:19:40;;;;;;;6.13;3.30;;;;;;;16.41;71.18;100259.50;30733225;28;96797;-65
2023/07/13 22:34:40;;;;;;;5.57;3.95;;;;;;;16.33;71.88;100265.09;30733662;28;96736;-65
2023/07/13 22:49:41;;;;;;;6.28;4.40;;;;;;;16.24;72.81;100270.69;30751903;28;109291;-65
2023/07/13 23:04:42;;;;;;;5.80;4.13;;;;;;;16.07;73.23;100275.63;30751664;28;97496;-65
2023/07/13 23:19:42;;;;;;;7.43;3.83;;;;;;;15.86;73.31;100268.56;30750085;28;97649;-65
2023/07/13 23:34:42;;;;;;;8.80;4.25;;;;;;;15.64;73.82;100280.44;30748606;28;96723;-65
2023/07/13 23:49:43;;;;;;;6.10;4.28;;;;;;;15.48;74.19;100279.75;30746826;28;97644;-65
